Time;durP1;ratioP1;P1;durP2;ratioP2;P2;SDS_P1;SDS_P2;PMS_P1;PMS_P2;Temp;Humidity;BMP_temperature;BMP_pressure;BME280_temperature;BME280_humidity;BME280_pressure;Samples;Min_cycle;Max_cycle;Signal;HPM_P1;HPM_P2
2023/03/15 00:01:35;;;;;;;12.03;3.13;;;2.50;97.80;;;1.39;73.18;100235.97;5054354;28;20566;-72
2023/03/15 00:04:07;;;;;;;8.03;3.17;;;2.50;97.60;;;1.40;73.09;100236.84;5054661;28;20239;-72
2023/03/15 00:06:38;;;;;;;9.40;2.50;;;2.50;97.70;;;1.43;73.53;100237.44;5054920;28;20210;-72
2023/03/15 00:09:12;;;;;;;9.20;2.50;;;2.50;97.60;;;1.45;73.84;100234.66;5054384;28;20198;-72
2023/03/15 00:11:44;;;;;;;9.80;3.07;;;2.50;97.70;;;1.43;74.07;100236.59;5054566;28;20574;-72
2023/03/15 00:14:15;;;;;;;7.60;2.47;;;2.50;97.80;;;1.38;73.72;100244.84;5054520;28;20234;-72
2023/03/15 00:16:47;;;;;;;7.13;2.43;;;2.40;97.80;;;1.39;73.52;100248.31;5054140;28;20623;-72
2023/03/15 00:19:19;;;;;;;11.80;3.27;;;2.40;97.80;;;1.35;73.62;100242.44;5054492;28;20194;-72
2023/03/15 00:21:51;;;;;;;10.90;2.80;;;2.40;97.80;;;1.31;73.93;100251.53;5054157;28;20631;-72
2023/03/15 00:24:24;;;;;;;10.83;3.17;;;2.40;97.80;;;1.29;73.36;100258.72;5054337;28;20222;-72
2023/03/15 00:26:56;;;;;;;13.47;3.57;;;2.30;97.80;;;1.28;73.99;100259.66;5054258;28;20256;-72
2023/03/15 00:29:28;;;;;;;12.80;4.23;;;2.30;97.80;;;1.26;73.94;100256.31;5054322;28;20190;-72
2023/03/15 00:32:01;;;;;;;18.67;5.97;;;2.30;97.90;;;1.25;74.08;100259.91;5054262;28;20248;-73
2023/03/15 00:34:33;;;;;;;15.70;5.77;;;2.30;98.10;;;1.25;74.51;100259.06;5054162;28;20312;-73
2023/03/15 00:37:05;;;;;;;16.30;4.73;;;2.30;98.20;;;1.26;74.35;100261.59;5054158;28;20201;-72
2023/03/15 00:39:39;;;;;;;11.80;3.90;;;2.40;98.30;;;1.23;74.33;100268.88;5054681;28;20191;-72
2023/03/15 00:42:14;;;;;;;11.50;3.90;;;2.30;98.30;;;1.22;74.54;100270.66;5054078;28;20194;-73
2023/03/15 00:44:46;;;;;;;8.40;3.37;;;2.30;98.20;;;1.27;74.17;100278.22;5053944;28;20226;-72
2023/03/15 00:47:18;;;;;;;13.07;3.40;;;2.30;98.00;;;1.25;73.75;100275.72;5053953;28;20214;-72
2023/03/15 00:49:50;;;;;;;11.63;3.27;;;2.30;97.80;;;1.28;74.25;100279.91;5053979;28;20186;-72
2023/03/15 00:52:22;;;;;;;10.17;2.70;;;2.30;97.90;;;1.26;74.05;100290.59;5053927;28;20600;-72
2023/03/15 00:54:59;;;;;;;6.43;2.70;;;2.30;97.80;;;1.28;73.09;100293.09;5053815;28;20637;-72
2023/03/15 00:57:32;;;;;;;9.30;2.27;;;2.30;97.60;;;1.27;73.33;100284.34;5053494;28;20680;-73
2023/03/15 01:00:04;;;;;;;8.70;2.23;;;2.40;97.60;;;1.24;73.61;100289.84;5054029;28;20198;-73
2023/03/15 01:02:37;;;;;;;9.33;2.37;;;2.30;97.60;;;1.23;73.02;100296.09;5054120;28;20194;-73
2023/03/15 01:05:10;;;;;;;11.00;2.60;;;2.30;97.40;;;1.22;72.63;100302.31;5053711;28;20663;-73
2023/03/15 01:07:44;;;;;;;8.10;2.70;;;2.30;97.40;;;1.22;73.40;100307.59;5053564;28;20229;-73
2023/03/15 01:10:18;;;;;;;9.50;2.47;;;2.30;97.50;;;1.22;73.35;100299.69;5053657;28;20194;-73
2023/03/15 01:12:50;;;;;;;9.03;3.47;;;2.30;97.50;;;1.22;73.33;100306.75;5053610;28;20193;-73
2023/03/15 01:15:22;;;;;;;12.63;3.07;;;2.30;97.60;;;1.21;73.52;100303.25;5053156;28;20233;-73
2023/03/15 01:17:55;;;;;;;10.67;3.00;;;2.30;97.70;;;1.24;73.76;100303.03;5053516;28;20182;-72
2023/03/15 01:20:27;;;;;;;10.57;2.50;;;2.30;97.80;;;1.26;73.99;100311.69;5053511;28;20200;-73
2023/03/15 01:22:59;;;;;;;14.43;3.27;;;2.30;97.80;;;1.27;73.61;100300.16;5054303;28;20221;-73
2023/03/15 01:25:32;;;;;;;7.70;2.50;;;2.30;97.50;;;1.28;73.35;100309.78;5053351;28;20276;-73
2023/03/15 01:28:03;;;;;;;11.73;3.00;;;2.30;97.60;;;1.32;73.54;100313.03;5053331;28;20267;-73
2023/03/15 01:30:35;;;;;;;11.03;2.73;;;2.40;97.60;;;1.32;73.25;100319.16;5053103;28;20603;-73
2023/03/15 01:33:07;;;;;;;10.07;3.60;;;2.40;97.40;;;1.36;72.63;100309.22;5053387;28;20194;-73
2023/03/15 01:35:39;;;;;;;6.87;2.70;;;2.40;97.30;;;1.37;72.63;100310.91;5053272;28;20237;-73
2023/03/15 01:38:11;;;;;;;10.00;3.20;;;2.50;97.20;;;1.38;72.40;100313.41;5053040;28;20186;-73
2023/03/15 01:40:48;;;;;;;11.13;2.70;;;2.50;97.20;;;1.41;72.06;100312.34;5053313;28;20194;-73
2023/03/15 01:43:23;;;;;;;12.27;2.73;;;2.50;97.10;;;1.41;71.80;100315.81;5053233;28;20186;-72
2023/03/15 01:46:14;;;;;;;10.37;2.93;;;2.50;96.90;;;1.41;72.35;100313.19;5053238;28;20214;-74
2023/03/15 01:48:55;;;;;;;9.83;2.83;;;2.50;97.00;;;1.42;72.42;100314.88;5053160;28;20210;-74
2023/03/15 01:51:33;;;;;;;9.33;2.70;;;2.50;97.00;;;1.45;72.86;100306.75;5052909;28;20251;-74
2023/03/15 01:54:07;;;;;;;7.57;2.60;;;2.50;97.30;;;1.43;72.42;100315.72;5053110;28;20233;-72
2023/03/15 01:56:46;;;;;;;8.33;3.00;;;2.50;97.10;;;1.43;72.71;100316.56;5053292;28;20190;-72
2023/03/15 01:59:25;;;;;;;10.13;3.33;;;2.50;97.20;;;1.42;73.02;100314.88;5053130;28;20655;-73
2023/03/15 02:01:58;;;;;;;11.67;3.30;;;2.50;97.20;;;1.46;73.30;100320.78;5053106;28;20201;-72
2023/03/15 02:04:45;;;;;;;6.60;2.67;;;2.50;97.50;;;1.46;73.34;100320.78;5052975;28;20226;-72
2023/03/15 02:07:22;;;;;;;14.43;3.20;;;2.50;97.70;;;1.42;73.07;100319.31;5052670;28;20194;-72
2023/03/15 02:10:02;;;;;;;9.50;2.50;;;2.50;97.50;;;1.43;73.15;100334.19;5053066;28;20194;-73
2023/03/15 02:12:44;;;;;;;13.23;2.90;;;2.50;97.70;;;1.44;73.49;100327.94;5053007;28;20193;-73
2023/03/15 02:15:17;;;;;;;11.87;2.97;;;2.50;97.70;;;1.44;74.13;100333.22;5055461;28;20237;-73
2023/03/15 02:17:51;;;;;;;11.10;3.40;;;2.50;98.00;;;1.42;73.55;100328.06;5056807;28;20187;-73
2023/03/15 02:20:35;;;;;;;10.10;3.37;;;2.50;97.70;;;1.45;74.04;100322.56;5056766;28;20194;-73
2023/03/15 02:23:12;;;;;;;12.17;4.20;;;2.50;97.80;;;1.45;74.07;100324.34;5057569;28;20561;-73
2023/03/15 02:25:53;;;;;;;8.57;3.20;;;2.50;98.00;;;1.45;73.43;100327.00;5056269;28;20714;-73
2023/03/15 02:28:27;;;;;;;18.87;4.33;;;2.50;97.70;;;1.43;73.74;100336.84;5056498;28;20260;-72
2023/03/15 02:31:00;;;;;;;13.37;3.97;;;2.50;97.80;;;1.43;73.73;100347.38;5056276;28;20654;-73
2023/03/15 02:33:38;;;;;;;9.80;3.27;;;2.50;97.80;;;1.45;73.34;100343.66;5056463;28;20217;-72
2023/03/15 02:36:20;;;;;;;9.57;3.27;;;2.50;97.80;;;1.44;73.49;100335.84;5056164;28;20653;-72
2023/03/15 02:38:54;;;;;;;10.03;3.30;;;2.50;97.60;;;1.44;73.93;100339.34;5056651;28;20209;-73
2023/03/15 02:41:32;;;;;;;12.67;2.80;;;2.50;97.90;;;1.47;73.38;100341.75;5056653;28;20191;-73
2023/03/15 02:44:11;;;;;;;10.07;2.63;;;2.50;97.50;;;1.50;73.39;100348.63;5056305;28;20229;-72
2023/03/15 02:46:44;;;;;;;14.37;2.80;;;2.50;97.70;;;1.53;73.36;100341.31;5056238;28;20652;-73
2023/03/15 02:49:16;;;;;;;9.87;2.77;;;2.60;97.50;;;1.60;72.58;100343.50;5056191;28;20214;-73
2023/03/15 02:51:48;;;;;;;12.80;2.93;;;2.70;97.20;;;1.65;72.10;100352.75;5056258;28;20198;-73
2023/03/15 02:54:20;;;;;;;7.43;2.50;;;2.70;96.90;;;1.72;71.51;100350.50;5056087;28;20254;-73
2023/03/15 02:56:52;;;;;;;12.20;2.77;;;2.80;96.60;;;1.80;71.02;100350.78;5056365;28;20194;-73
2023/03/15 02:59:25;;;;;;;9.93;2.30;;;2.90;96.50;;;1.80;71.36;100354.28;5055768;28;20194;-73
2023/03/15 03:01:57;;;;;;;9.40;2.40;;;2.80;96.60;;;1.81;71.71;100352.47;5055718;28;20190;-72
2023/03/15 03:04:29;;;;;;;7.60;2.30;;;2.90;96.60;;;1.82;71.55;100359.41;5055940;28;20229;-72
2023/03/15 03:07:01;;;;;;;10.70;2.67;;;2.90;96.80;;;1.83;71.68;100361.09;5055933;28;20195;-73
2023/03/15 03:09:32;;;;;;;8.50;2.63;;;2.90;96.70;;;1.83;72.09;100369.03;5056017;28;20210;-73
2023/03/15 03:12:04;;;;;;;8.43;2.17;;;2.90;96.80;;;1.81;72.08;100376.22;5055507;28;20206;-73
2023/03/15 03:14:37;;;;;;;10.83;2.53;;;2.80;97.00;;;1.79;71.67;100376.31;5055590;28;20238;-72
2023/03/15 03:17:09;;;;;;;9.03;2.70;;;2.90;96.90;;;1.78;72.28;100384.38;5055750;28;20194;-73
2023/03/15 03:19:41;;;;;;;12.27;2.60;;;2.80;97.00;;;1.81;72.26;100378.88;5055918;28;20206;-73
2023/03/15 03:22:13;;;;;;;14.20;3.30;;;2.90;97.10;;;1.80;72.56;100378.03;5055675;28;20190;-73
2023/03/15 03:24:45;;;;;;;12.43;2.93;;;2.80;97.10;;;1.79;72.36;100383.41;5055753;28;20260;-73
2023/03/15 03:27:18;;;;;;;11.73;3.07;;;2.90;97.10;;;1.77;73.12;100387.97;5055820;28;20187;-73
2023/03/15 03:29:51;;;;;;;9.63;2.73;;;2.80;97.40;;;1.76;73.30;100392.41;5055442;28;20622;-73
2023/03/15 03:32:23;;;;;;;12.33;2.87;;;2.80;97.40;;;1.73;73.13;100408.47;5055139;28;20607;-73
2023/03/15 03:34:55;;;;;;;11.20;2.77;;;2.80;97.50;;;1.68;73.76;100404.47;5055331;28;20313;-73
2023/03/15 03:37:29;;;;;;;12.60;3.03;;;2.80;97.70;;;1.68;73.72;100415.03;5055072;28;20194;-72
2023/03/15 03:40:04;;;;;;;12.73;2.77;;;2.70;97.70;;;1.63;74.62;100422.44;5055314;28;20226;-72
2023/03/15 03:42:35;;;;;;;7.07;3.27;;;2.70;98.00;;;1.63;74.66;100422.44;5055253;28;20194;-73
2023/03/15 03:45:09;;;;;;;8.67;3.10;;;2.70;98.20;;;1.60;74.76;100428.78;5055401;28;20226;-73
2023/03/15 03:47:41;;;;;;;10.93;2.50;;;2.70;98.40;;;1.59;75.13;100426.25;5055183;28;20194;-72
2023/03/15 03:50:15;;;;;;;10.10;3.00;;;2.60;98.60;;;1.54;75.58;100429.22;5055037;28;20210;-73
2023/03/15 03:52:47;;;;;;;11.03;3.13;;;2.60;98.70;;;1.52;75.94;100439.88;5055068;28;20194;-73
2023/03/15 03:55:18;;;;;;;7.27;3.07;;;2.60;98.90;;;1.52;76.20;100433.75;5054934;28;20235;-73
2023/03/15 03:57:51;;;;;;;8.90;3.40;;;2.60;99.10;;;1.51;76.81;100440.81;5054951;28;20205;-73
2023/03/15 04:00:25;;;;;;;7.57;3.67;;;2.60;99.40;;;1.50;77.53;100436.53;5055112;28;20197;-73
2023/03/15 04:02:56;;;;;;;11.63;3.60;;;2.50;99.90;;;1.48;77.92;100448.13;5054792;28;20195;-73
2023/03/15 04:05:28;;;;;;;8.20;3.23;;;2.60;99.90;;;1.47;77.85;100449.09;5054717;28;20235;-73
2023/03/15 04:08:00;;;;;;;7.17;3.50;;;2.50;99.90;;;1.43;78.33;100459.00;5054958;28;20194;-73
2023/03/15 04:10:33;;;;;;;8.77;3.83;;;2.50;99.90;;;1.40;78.64;100453.97;5054637;28;20225;-73
2023/03/15 04:13:05;;;;;;;12.80;4.03;;;2.50;99.90;;;1.42;79.20;100462.59;5054648;28;20198;-73
2023/03/15 04:15:38;;;;;;;9.80;3.50;;;2.50;99.90;;;1.40;78.92;100464.50;5054286;28;20237;-72
2023/03/15 04:18:11;;;;;;;10.53;3.53;;;2.50;99.90;;;1.39;79.24;100477.78;5054583;28;20260;-72
2023/03/15 04:20:45;;;;;;;12.20;3.67;;;2.40;99.90;;;1.42;79.68;100482.84;5054512;28;20601;-72
2023/03/15 04:23:19;;;;;;;12.20;4.20;;;2.50;99.90;;;1.44;79.25;100480.94;5054503;28;20213;-73
2023/03/15 04:25:53;;;;;;;10.80;4.00;;;2.50;99.90;;;1.47;79.46;100486.84;5054041;28;20775;-73
2023/03/15 04:28:25;;;;;;;9.00;3.37;;;2.50;99.90;;;1.45;80.38;100480.84;5053961;28;20604;-73
2023/03/15 04:30:59;;;;;;;11.83;3.70;;;2.50;99.90;;;1.46;80.60;100502.78;5054355;28;20201;-74
2023/03/15 04:33:31;;;;;;;11.17;4.47;;;2.50;99.90;;;1.46;80.84;100502.78;5053887;28;20197;-72
2023/03/15 04:36:02;;;;;;;13.27;5.00;;;2.50;99.90;;;1.47;80.82;100507.94;5054269;28;20198;-74
2023/03/15 04:38:34;;;;;;;11.60;4.93;;;2.50;99.90;;;1.48;81.36;100509.63;5053730;28;20289;-73
2023/03/15 04:41:09;;;;;;;11.93;4.57;;;2.60;99.90;;;1.48;81.75;100504.34;5054173;28;20191;-73
2023/03/15 04:43:41;;;;;;;10.83;5.07;;;2.60;99.90;;;1.48;81.94;100499.09;5054074;28;20217;-73
2023/03/15 04:46:15;;;;;;;11.97;5.20;;;2.50;99.90;;;1.49;82.21;100495.50;5054050;28;20190;-72
2023/03/15 04:48:47;;;;;;;9.60;4.97;;;2.60;99.90;;;1.48;82.03;100496.44;5054481;28;20195;-73
2023/03/15 04:51:18;;;;;;;11.23;5.17;;;2.50;99.90;;;1.48;82.14;100501.72;5053998;28;20194;-73
2023/03/15 04:53:51;;;;;;;9.00;4.40;;;2.60;99.90;;;1.49;82.52;100505.22;5053870;28;20244;-73
2023/03/15 04:56:22;;;;;;;13.87;5.23;;;2.60;99.90;;;1.49;82.38;100516.59;5053873;28;20201;-72
2023/03/15 04:58:54;;;;;;;10.67;4.50;;;2.50;99.90;;;1.56;82.23;100513.53;5053462;28;20639;-73
2023/03/15 05:01:32;;;;;;;13.33;4.60;;;2.60;99.90;;;1.56;82.16;100521.44;5053811;28;20213;-73
2023/03/15 05:04:04;;;;;;;10.23;4.60;;;2.60;99.90;;;1.58;82.20;100524.81;5053950;28;20234;-72
2023/03/15 05:06:36;;;;;;;12.00;4.90;;;2.70;99.90;;;1.57;82.20;100534.53;5053705;28;20194;-73
2023/03/15 05:09:08;;;;;;;6.97;4.43;;;2.60;99.90;;;1.54;82.34;100534.75;5053615;28;20210;-73
2023/03/15 05:11:40;;;;;;;10.30;4.63;;;2.60;99.90;;;1.57;82.42;100538.97;5053352;28;20649;-73
2023/03/15 05:14:12;;;;;;;9.37;4.63;;;2.60;99.90;;;1.56;82.47;100546.03;5053752;28;20230;-73
2023/03/15 05:16:47;;;;;;;8.43;4.50;;;2.60;99.90;;;1.54;82.74;100545.31;5053512;28;20218;-73
2023/03/15 05:19:20;;;;;;;8.97;4.70;;;2.60;99.90;;;1.52;82.75;100550.69;5053088;28;20228;-72
2023/03/15 05:21:53;;;;;;;9.87;4.90;;;2.60;99.90;;;1.53;83.33;100562.09;5052807;28;20205;-72
2023/03/15 05:24:25;;;;;;;8.17;4.57;;;2.60;99.90;;;1.55;83.25;100562.81;5053241;28;20276;-73
2023/03/15 05:26:57;;;;;;;7.13;4.93;;;2.60;99.90;;;1.54;83.60;100567.25;5053223;28;20210;-73
2023/03/15 05:29:31;;;;;;;11.17;4.57;;;2.60;99.90;;;1.57;83.41;100570.63;5053154;28;20217;-72
2023/03/15 05:32:04;;;;;;;12.20;4.93;;;2.60;99.90;;;1.56;83.39;100568.94;5052886;28;20194;-73
2023/03/15 05:34:35;;;;;;;9.43;4.83;;;2.60;99.90;;;1.57;83.57;100575.91;5053396;28;20279;-73
2023/03/15 05:37:07;;;;;;;9.77;4.57;;;2.60;99.90;;;1.51;83.62;100587.72;5053078;28;20643;-73
2023/03/15 05:39:41;;;;;;;8.47;5.00;;;2.60;99.90;;;1.51;83.70;100583.28;5053071;28;20639;-73
2023/03/15 05:42:13;;;;;;;8.73;4.80;;;2.60;99.90;;;1.53;83.78;100586.69;5052985;28;20603;-72
2023/03/15 05:44:45;;;;;;;7.53;4.67;;;2.60;99.90;;;1.52;83.53;100594.69;5052865;28;20702;-72
2023/03/15 05:47:18;;;;;;;11.33;4.97;;;2.60;99.90;;;1.52;83.58;100600.81;5052952;28;20202;-72
2023/03/15 05:49:51;;;;;;;9.53;4.73;;;2.60;99.90;;;1.53;83.46;100602.50;5055507;28;20283;-74
2023/03/15 05:52:23;;;;;;;8.90;5.20;;;2.60;99.90;;;1.53;83.54;100612.22;5057374;28;20643;-74
2023/03/15 05:54:54;;;;;;;5.70;4.73;;;2.60;99.90;;;1.57;83.77;100626.88;5057733;28;20222;-73
2023/03/15 05:57:26;;;;;;;8.60;5.40;;;2.60;99.90;;;1.59;83.33;100626.75;5056904;28;20639;-72
2023/03/15 05:59:58;;;;;;;9.33;5.10;;;2.70;99.90;;;1.58;83.27;100632.97;5057182;28;20190;-73
2023/03/15 06:02:31;;;;;;;7.67;4.63;;;2.60;99.90;;;1.61;83.40;100635.44;5057105;28;20205;-73
2023/03/15 06:05:03;;;;;;;7.73;4.57;;;2.60;99.90;;;1.60;83.31;100644.28;5057030;28;20276;-73
2023/03/15 06:07:34;;;;;;;8.27;4.47;;;2.70;99.90;;;1.61;83.40;100648.63;5057040;28;20190;-73
2023/03/15 06:10:08;;;;;;;7.07;4.40;;;2.60;99.90;;;1.59;83.26;100647.88;5057472;28;20210;-73
2023/03/15 06:12:40;;;;;;;9.97;5.80;;;2.70;99.90;;;1.60;83.50;100660.13;5056926;28;20191;-73
2023/03/15 06:15:12;;;;;;;5.93;4.60;;;2.60;99.90;;;1.64;83.42;100667.72;5056312;28;20250;-73
2023/03/15 06:17:45;;;;;;;7.40;4.97;;;2.70;99.90;;;1.65;83.52;100661.50;5055202;28;20207;-73
2023/03/15 06:20:19;;;;;;;8.87;4.93;;;2.70;99.90;;;1.65;83.43;100668.56;5055213;28;20704;-73
2023/03/15 06:22:50;;;;;;;8.20;4.57;;;2.70;99.90;;;1.67;83.46;100669.31;5055507;28;20190;-73
2023/03/15 06:25:22;;;;;;;6.70;4.70;;;2.70;99.90;;;1.63;83.38;100666.03;5055383;28;20225;-73
2023/03/15 06:27:54;;;;;;;6.27;4.57;;;2.70;99.90;;;1.63;83.23;100668.69;5055396;28;20598;-73
2023/03/15 06:30:26;;;;;;;7.57;5.20;;;2.70;99.90;;;1.64;83.47;100677.44;5055295;28;20213;-73
2023/03/15 06:32:59;;;;;;;8.83;4.90;;;2.70;99.90;;;1.63;83.52;100675.75;5055056;28;20647;-73
2023/03/15 06:35:31;;;;;;;7.67;4.93;;;2.70;99.90;;;1.62;83.49;100679.31;5055191;28;20740;-73
2023/03/15 06:38:03;;;;;;;8.83;5.43;;;2.70;99.90;;;1.64;82.89;100690.63;5054940;28;20287;-73
2023/03/15 06:40:35;;;;;;;8.60;6.03;;;2.70;99.90;;;1.64;83.15;100693.28;5055758;28;20191;-73
2023/03/15 06:43:07;;;;;;;7.83;5.27;;;2.70;99.90;;;1.64;83.29;100699.41;5055403;28;20194;-72
2023/03/15 06:45:39;;;;;;;7.00;5.77;;;2.70;99.90;;;1.65;83.49;100697.59;5055338;28;20234;-73
2023/03/15 06:48:13;;;;;;;12.40;7.07;;;2.70;99.90;;;1.66;83.85;100702.78;5054822;28;20565;-73
2023/03/15 06:50:45;;;;;;;11.20;5.80;;;2.70;99.90;;;1.71;83.53;100705.94;5055021;28;20225;-73
2023/03/15 06:53:19;;;;;;;13.83;6.57;;;2.70;99.90;;;1.76;83.83;100713.53;5054998;28;20259;-73
2023/03/15 06:55:51;;;;;;;10.60;6.50;;;2.80;99.90;;;1.80;83.93;100718.50;5054890;28;20230;-73
2023/03/15 06:58:22;;;;;;;7.20;5.53;;;2.80;99.90;;;1.86;83.43;100727.78;5054885;28;20248;-73
2023/03/15 07:00:55;;;;;;;7.73;5.63;;;2.90;99.90;;;1.92;83.20;100730.00;5054135;28;20574;-73
2023/03/15 07:03:28;;;;;;;9.50;5.30;;;3.00;99.90;;;1.95;83.15;100735.91;5054826;28;20194;-74
2023/03/15 07:06:00;;;;;;;8.30;6.03;;;3.00;99.90;;;2.00;83.37;100748.81;5054833;28;20191;-73
2023/03/15 07:08:32;;;;;;;8.03;5.53;;;3.00;99.90;;;2.00;83.22;100746.16;5054737;28;20236;-73
2023/03/15 07:11:05;;;;;;;8.80;5.77;;;3.10;99.90;;;2.02;83.44;100752.22;5054710;28;20210;-73
2023/03/15 07:13:38;;;;;;;11.40;6.17;;;3.00;99.90;;;2.00;83.56;100754.94;5054481;28;20208;-73
2023/03/15 07:16:10;;;;;;;11.03;6.40;;;3.10;99.90;;;2.01;83.30;100756.66;5017008;28;1090286;-73
2023/03/15 07:18:43;;;;;;;10.97;7.20;;;3.10;99.90;;;1.99;83.41;100752.41;5055306;28;20688;-73
2023/03/15 07:21:15;;;;;;;11.27;8.00;;;3.00;99.90;;;1.99;83.48;100773.50;5055616;28;20182;-73
2023/03/15 07:23:48;;;;;;;11.57;7.10;;;3.00;99.90;;;1.99;83.42;100773.50;5055171;28;20534;-73
2023/03/15 07:26:19;;;;;;;9.47;7.13;;;3.00;99.90;;;2.02;83.06;100778.63;5055423;28;20186;-73
2023/03/15 07:28:51;;;;;;;9.80;7.00;;;3.10;99.90;;;2.01;83.00;100776.91;5055076;28;20663;-73
2023/03/15 07:31:23;;;;;;;10.03;7.97;;;3.10;99.90;;;2.00;82.41;100772.56;5054966;28;20602;-73
2023/03/15 07:33:56;;;;;;;12.20;8.93;;;3.00;99.90;;;2.01;82.79;100790.13;5055213;28;20280;-73
2023/03/15 07:36:28;;;;;;;9.50;8.10;;;3.00;99.90;;;2.01;82.38;100795.41;5055163;28;20199;-73
2023/03/15 07:39:00;;;;;;;11.40;8.60;;;3.00;99.90;;;2.01;82.38;100792.75;5055246;28;20197;-73
2023/03/15 07:41:32;;;;;;;13.03;8.57;;;3.10;99.90;;;2.03;83.04;100801.41;5054831;28;20666;-73
2023/03/15 07:44:04;;;;;;;13.30;9.17;;;3.10;99.90;;;2.03;82.26;100802.25;5055054;28;20230;-73
2023/03/15 07:46:35;;;;;;;11.93;8.13;;;3.10;99.90;;;2.05;82.73;100807.44;5055064;28;20213;-73
2023/03/15 07:49:09;;;;;;;13.77;8.50;;;3.10;99.90;;;2.13;82.77;100801.63;5055558;28;20225;-73
2023/03/15 07:51:41;;;;;;;19.60;8.13;;;3.10;99.90;;;2.13;81.89;100806.91;5054550;28;20260;-73
2023/03/15 07:54:12;;;;;;;11.93;7.63;;;3.20;99.90;;;2.17;82.22;100808.38;5054864;28;20231;-73
2023/03/15 07:56:44;;;;;;;12.50;8.20;;;3.20;99.90;;;2.26;81.51;100819.16;5054902;28;20197;-73
2023/03/15 07:59:16;;;;;;;11.40;8.27;;;3.30;99.90;;;2.28;80.33;100822.56;5054533;28;20203;-73
2023/03/15 08:01:48;;;;;;;11.93;7.80;;;3.30;99.90;;;2.34;81.61;100819.50;5054461;28;20189;-73
2023/03/15 08:04:21;;;;;;;15.60;9.00;;;3.40;99.90;;;2.41;80.36;100833.97;5054669;28;20276;-73
2023/03/15 08:06:53;;;;;;;14.37;9.63;;;3.50;99.90;;;2.47;80.21;100817.69;5055020;28;20194;-73
2023/03/15 08:09:25;;;;;;;13.80;9.33;;;3.50;99.90;;;2.50;80.33;100828.03;5055002;28;20244;-73
2023/03/15 08:11:57;;;;;;;17.27;9.57;;;3.50;99.90;;;2.52;80.38;100839.38;5053685;28;20220;-73
2023/03/15 08:14:30;;;;;;;11.20;8.37;;;3.60;99.90;;;2.54;80.35;100839.25;5054438;28;20229;-73
2023/03/15 08:17:01;;;;;;;12.07;8.70;;;3.60;99.90;;;2.60;80.61;100835.34;5054780;28;20191;-73
2023/03/15 08:19:35;;;;;;;12.97;8.07;;;3.60;99.90;;;2.55;80.14;100836.50;5054725;28;20194;-73
2023/03/15 08:22:07;;;;;;;12.00;7.90;;;3.60;99.90;;;2.55;80.88;100847.06;5054411;28;20187;-73
2023/03/15 08:24:38;;;;;;;12.50;7.43;;;3.60;99.90;;;2.60;79.49;100845.91;5054718;28;20244;-73
2023/03/15 08:27:11;;;;;;;8.67;6.10;;;3.60;99.90;;;2.62;79.02;100846.63;5054601;28;20202;-73
2023/03/15 08:29:43;;;;;;;9.43;6.07;;;3.70;99.90;;;2.67;77.95;100850.63;5054278;28;20201;-73
2023/03/15 08:32:16;;;;;;;8.63;5.73;;;3.70;99.90;;;2.72;77.49;100850.31;5054131;28;20217;-73
2023/03/15 08:34:51;;;;;;;8.53;6.30;;;3.70;99.80;;;2.74;76.47;100861.66;5054010;28;20237;-73
2023/03/15 08:37:23;;;;;;;12.17;7.17;;;3.80;99.40;;;2.77;76.87;100857.00;5054011;28;20555;-73
2023/03/15 08:39:59;;;;;;;9.73;8.40;;;3.80;99.30;;;2.89;76.58;100865.84;5054311;28;20187;-73
2023/03/15 08:42:31;;;;;;;12.33;8.67;;;3.90;99.50;;;3.09;76.13;100875.84;5053683;28;20716;-73
2023/03/15 08:45:05;;;;;;;13.00;9.10;;;4.10;99.30;;;3.20;75.94;100875.94;5053639;28;20245;-73
2023/03/15 08:47:38;;;;;;;13.57;7.93;;;4.10;99.20;;;3.15;76.81;100883.34;5053919;28;20202;-73
2023/03/15 08:50:15;;;;;;;12.20;7.37;;;4.10;99.40;;;3.18;76.13;100884.94;5053867;28;20264;-73
2023/03/15 08:52:46;;;;;;;8.33;5.30;;;4.20;99.40;;;3.22;75.28;100884.59;5053720;28;20210;-73
2023/03/15 08:55:18;;;;;;;9.10;5.23;;;4.20;98.90;;;3.31;74.91;100888.41;5053700;28;20284;-73
2023/03/15 08:57:50;;;;;;;9.50;4.07;;;4.30;98.70;;;3.42;74.44;100897.28;5053767;28;20186;-73
2023/03/15 09:00:23;;;;;;;9.43;4.00;;;4.40;98.20;;;3.55;72.25;100903.34;5053751;28;20195;-73
2023/03/15 09:02:55;;;;;;;6.80;3.80;;;4.50;97.40;;;3.70;72.34;100905.84;5053412;28;20559;-73
2023/03/15 09:05:28;;;;;;;9.87;5.17;;;4.70;97.50;;;3.79;71.58;100905.16;5053535;28;20233;-73
2023/03/15 09:08:00;;;;;;;10.57;4.20;;;4.70;97.00;;;3.94;71.68;100914.59;5053238;28;20668;-73
2023/03/15 09:10:33;;;;;;;9.77;4.37;;;4.90;96.70;;;4.03;70.26;100916.59;5053054;28;20719;-73
2023/03/15 09:13:05;;;;;;;11.60;4.80;;;5.00;95.90;;;4.13;70.76;100922.88;5053815;28;20214;-74
2023/03/15 09:15:37;;;;;;;10.97;6.00;;;5.10;96.30;;;4.18;71.78;100923.38;5053349;28;20237;-74
2023/03/15 09:18:08;;;;;;;7.03;4.57;;;5.20;96.60;;;4.10;73.45;100925.78;5053891;28;20194;-74
2023/03/15 09:20:41;;;;;;;9.13;5.00;;;5.10;97.70;;;4.05;73.28;100927.91;5053248;28;20196;-73
2023/03/15 09:23:14;;;;;;;11.23;4.10;;;5.00;97.60;;;3.95;72.85;100933.03;5052024;28;20530;-74
2023/03/15 09:25:46;;;;;;;11.13;3.00;;;5.00;97.40;;;3.95;73.09;100925.09;5053723;28;20650;-74
2023/03/15 09:28:18;;;;;;;8.57;3.30;;;5.00;97.60;;;3.98;74.97;100938.13;5054926;28;20190;-74
2023/03/15 09:30:50;;;;;;;12.07;3.30;;;5.00;98.20;;;4.01;71.72;100937.88;5055143;28;20246;-73
2023/03/15 09:33:22;;;;;;;10.33;2.90;;;5.00;97.20;;;4.06;71.47;100946.34;5054507;28;20302;-74
2023/03/15 09:35:56;;;;;;;10.20;3.00;;;5.00;97.00;;;4.06;70.59;100945.50;5054174;28;20567;-74
2023/03/15 09:38:29;;;;;;;11.07;3.40;;;5.10;96.50;;;4.04;72.13;100936.84;5053607;28;20194;-75
2023/03/15 09:41:03;;;;;;;9.97;4.17;;;5.10;96.80;;;4.22;70.78;100939.88;5053333;28;20190;-75
2023/03/15 09:44:09;;;;;;;12.23;3.63;;;5.20;96.30;;;4.23;70.64;100941.59;5053296;28;20252;-74
2023/03/15 09:46:53;;;;;;;9.83;3.07;;;5.30;96.00;;;4.19;71.20;100946.28;5053034;28;20601;-74
2023/03/15 09:49:45;;;;;;;11.40;3.00;;;5.20;96.40;;;4.17;69.83;100950.00;5053220;28;20190;-74
2023/03/15 09:52:27;;;;;;;11.83;3.30;;;5.20;95.90;;;4.22;67.14;100956.63;5053147;28;20233;-74
2023/03/15 09:55:06;;;;;;;8.70;3.30;;;5.20;94.50;;;4.27;68.69;100959.81;5053071;28;20241;-74
2023/03/15 09:57:47;;;;;;;13.93;2.73;;;5.30;94.80;;;4.31;68.86;100961.28;5053456;28;20194;-75
2023/03/15 10:00:29;;;;;;;15.53;2.63;;;5.30;95.50;;;4.31;68.05;100957.78;5053173;28;20609;-75
2023/03/15 10:03:08;;;;;;;14.40;4.40;;;5.30;94.90;;;4.28;68.25;100972.06;5053097;28;20189;-75
2023/03/15 10:05:45;;;;;;;10.20;3.27;;;5.30;94.70;;;4.23;67.17;100968.09;5053182;28;20232;-73
2023/03/15 10:08:21;;;;;;;5.73;2.43;;;5.20;94.00;;;4.22;66.62;100969.03;5053115;28;20194;-74
2023/03/15 10:11:04;;;;;;;7.50;2.20;;;5.20;93.60;;;4.19;67.70;100966.63;5053050;28;20197;-74
2023/03/15 10:13:50;;;;;;;11.17;2.47;;;5.20;94.10;;;4.20;66.98;100974.47;5052925;28;20225;-73
2023/03/15 10:16:42;;;;;;;10.40;3.37;;;5.20;93.70;;;4.14;65.45;100966.97;5052946;28;20214;-74
2023/03/15 10:19:38;;;;;;;8.60;2.47;;;5.10;92.80;;;4.29;65.45;100963.19;5052999;28;20186;-74
2023/03/15 10:22:25;;;;;;;5.37;2.20;;;5.20;93.20;;;4.56;66.34;100969.03;5052949;28;20186;-74
2023/03/15 10:25:10;;;;;;;9.90;3.07;;;5.50;93.40;;;4.82;63.90;100963.56;5052611;28;20222;-73
2023/03/15 10:27:52;;;;;;;5.43;2.20;;;5.70;92.20;;;5.07;64.34;100973.94;5052914;28;20244;-74
2023/03/15 10:30:26;;;;;;;8.93;2.23;;;6.00;92.40;;;5.24;62.00;100968.16;5052844;28;20190;-73
2023/03/15 10:33:02;;;;;;;13.70;2.67;;;6.20;90.70;;;5.26;62.28;100958.28;5052461;28;20209;-74
2023/03/15 10:35:34;;;;;;;8.03;2.00;;;6.20;90.80;;;5.11;62.11;100956.81;5053998;28;20225;-74
2023/03/15 10:38:14;;;;;;;14.00;5.63;;;6.10;90.40;;;4.94;61.07;100963.47;5056559;28;20190;-75
2023/03/15 10:40:51;;;;;;;10.03;2.40;;;5.90;90.20;;;4.76;61.14;100956.91;5056441;28;20194;-75
2023/03/15 10:43:28;;;;;;;8.90;2.23;;;5.70;88.60;;;4.97;59.42;100972.97;5056166;28;20190;-75
2023/03/15 10:46:08;;;;;;;6.83;2.70;;;5.90;87.50;;;5.02;60.48;100965.53;5056078;28;20535;-76
2023/03/15 10:48:52;;;;;;;5.33;2.47;;;6.00;88.50;;;4.96;58.41;100968.66;5056352;28;20673;-75
2023/03/15 10:51:29;;;;;;;7.67;1.93;;;5.90;85.70;;;5.08;55.86;100976.50;5056313;28;20201;-75